Time;durP1;ratioP1;P1;durP2;ratioP2;P2;SDS_P1;SDS_P2;PMS_P1;PMS_P2;Temp;Humidity;BMP_temperature;BMP_pressure;BME280_temperature;BME280_humidity;BME280_pressure;Samples;Min_cycle;Max_cycle;Signal;HPM_P1;HPM_P2
2023/11/02 00:00:31;;;;;;;;;2.00;2.00;;;;;16.09;100.00;98157.53;2062279;28;46273;-59
2023/11/02 00:01:32;;;;;;;;;0.67;0.67;;;;;16.10;100.00;98158.38;2054628;28;45240;-54
2023/11/02 00:02:33;;;;;;;;;1.75;1.75;;;;;16.08;100.00;98146.97;2062094;28;46868;-58
2023/11/02 00:03:37;;;;;;;;;1.25;1.25;;;;;16.10;100.00;98150.34;2062805;28;46749;-58
2023/11/02 00:04:38;;;;;;;;;2.75;2.00;;;;;16.09;100.00;98129.91;2062860;28;46396;-58
2023/11/02 00:05:52;;;;;;;;;1.25;1.25;;;;;16.07;100.00;98129.22;2062911;28;47266;-58
2023/11/02 00:06:53;;;;;;;;;3.00;3.00;;;;;16.06;100.00;98119.50;2062553;28;46812;-57
2023/11/02 00:07:53;;;;;;;;;4.00;2.00;;;;;16.03;100.00;98127.78;2062912;28;46563;-60
2023/11/02 00:09:03;;;;;;;;;3.00;3.00;;;;;15.99;100.00;98123.66;2062855;28;46357;-59
2023/11/02 00:10:05;;;;;;;;;3.50;1.75;;;;;15.97;100.00;98113.09;2063177;28;46885;-60
2023/11/02 00:11:06;;;;;;;;;3.75;2.25;;;;;15.96;100.00;98102.53;2062534;28;46389;-57
2023/11/02 00:12:11;;;;;;;;;3.00;3.00;;;;;15.94;100.00;98118.72;2062959;28;46361;-57
2023/11/02 00:13:26;;;;;;;;;3.00;2.75;;;;;15.94;100.00;98112.50;2062843;28;46949;-61
2023/11/02 00:14:32;;;;;;;;;3.50;3.50;;;;;15.94;100.00;98102.66;2062727;28;46893;-56
2023/11/02 00:15:32;;;;;;;;;2.75;2.25;;;;;15.93;100.00;98097.44;2062919;28;45813;-57
2023/11/02 00:16:34;;;;;;;;;3.00;3.00;;;;;15.93;100.00;98089.41;2062032;28;46307;-58
2023/11/02 00:17:38;;;;;;;;;3.00;3.00;;;;;15.87;100.00;98075.56;2062494;28;46526;-59
2023/11/02 00:18:38;;;;;;;;;3.50;3.00;;;;;15.86;100.00;98075.72;2062783;28;46500;-58
2023/11/02 00:19:39;;;;;;;;;0.67;0.67;;;;;15.85;100.00;98074.00;2063110;28;46305;-58
2023/11/02 00:20:39;;;;;;;;;3.67;3.67;;;;;15.85;100.00;98069.50;2062794;28;45583;-60
2023/11/02 00:21:40;;;;;;;;;2.00;2.00;;;;;15.84;100.00;98059.78;2062998;28;46832;-56
2023/11/02 00:22:44;;;;;;;;;3.33;3.33;;;;;15.84;100.00;98065.16;2062889;28;46486;-57
2023/11/02 00:23:44;;;;;;;;;1.25;0.75;;;;;15.83;100.00;98049.22;2054602;28;46472;-55
2023/11/02 00:24:47;;;;;;;;;2.33;1.67;;;;;15.80;100.00;98045.00;2062678;28;46212;-55
2023/11/02 00:25:54;;;;;;;;;1.25;1.25;;;;;15.80;100.00;98034.31;2062766;28;46636;-57
2023/11/02 00:26:55;;;;;;;;;2.75;2.75;;;;;15.80;100.00;98010.25;2063051;28;46338;-57
2023/11/02 00:27:55;;;;;;;;;1.00;1.00;;;;;15.80;100.00;98004.88;2062697;28;46793;-54
2023/11/02 00:28:55;;;;;;;;;2.00;1.67;;;;;15.79;100.00;97999.69;2063172;28;46019;-57
2023/11/02 00:29:56;;;;;;;;;1.67;1.67;;;;;15.76;100.00;98008.81;2062708;28;46277;-58
2023/11/02 00:30:56;;;;;;;;;1.67;1.67;;;;;15.76;100.00;98002.63;2063058;28;46461;-57
2023/11/02 00:31:57;;;;;;;;;3.00;1.67;;;;;15.75;100.00;97995.56;2062924;28;47229;-57
2023/11/02 00:32:58;;;;;;;;;1.00;0.75;;;;;15.75;100.00;97991.09;2062624;28;46516;-57
2023/11/02 00:33:58;;;;;;;;;2.67;1.67;;;;;15.73;100.00;97992.16;2062653;28;47534;-59
2023/11/02 00:34:59;;;;;;;;;1.67;1.67;;;;;15.71;100.00;97957.53;2063118;28;46256;-59
2023/11/02 00:35:59;;;;;;;;;1.67;1.67;;;;;15.70;100.00;97941.63;2062639;28;46325;-54
2023/11/02 00:36:59;;;;;;;;;0.33;0.33;;;;;15.71;100.00;97927.28;2062070;28;46429;-60
2023/11/02 00:38:00;;;;;;;;;0.33;0.33;;;;;15.70;100.00;97933.63;2054509;28;45419;-60
2023/11/02 00:39:00;;;;;;;;;0.67;0.67;;;;;15.71;100.00;97938.84;2062025;28;45749;-59
2023/11/02 00:40:00;;;;;;;;;1.00;1.00;;;;;15.72;100.00;97943.19;2062815;28;47651;-58
2023/11/02 00:41:02;;;;;;;;;0.00;0.00;;;;;15.72;100.00;97943.19;2062870;28;46469;-57
2023/11/02 00:42:03;;;;;;;;;0.50;0.50;;;;;15.72;100.00;97935.19;2062266;28;46482;-56
2023/11/02 00:43:08;;;;;;;;;3.67;1.67;;;;;15.72;100.00;97916.47;2096057;28;45042;-54
2023/11/02 00:44:09;;;;;;;;;0.75;0.75;;;;;15.70;100.00;97898.88;2093279;28;47522;-56
2023/11/02 00:45:10;;;;;;;;;1.50;1.50;;;;;15.68;100.00;97900.81;2062831;28;46668;-56
2023/11/02 00:46:10;;;;;;;;;2.00;1.00;;;;;15.64;100.00;97883.38;2062554;28;46466;-58
2023/11/02 00:47:15;;;;;;;;;0.33;0.33;;;;;15.63;100.00;97869.16;2062740;28;47521;-58
2023/11/02 00:48:20;;;;;;;;;1.50;1.50;;;;;15.59;100.00;97857.00;2062697;28;46283;-55
2023/11/02 00:49:22;;;;;;;;;0.00;0.00;;;;;15.57;100.00;97849.13;2062885;28;46875;-58
2023/11/02 00:50:50;;;;;;;;;0.00;0.00;;;;;15.55;100.00;97856.44;2061523;28;47065;-58
2023/11/02 00:51:56;;;;;;;;;1.75;1.75;;;;;15.52;100.00;97821.94;2061919;28;46329;-59
2023/11/02 00:52:56;;;;;;;;;3.00;1.00;;;;;15.53;100.00;97806.75;2069602;28;46626;-59
2023/11/02 00:53:59;;;;;;;;;0.67;0.67;;;;;15.54;100.00;97779.91;2062498;28;46719;-56
2023/11/02 00:55:00;;;;;;;;;2.00;1.00;;;;;15.53;100.00;97745.28;2057035;28;46654;-59
2023/11/02 00:56:06;;;;;;;;;4.33;3.33;;;;;15.49;100.00;97739.34;2063150;28;45486;-57
2023/11/02 00:57:09;;;;;;;;;2.00;1.25;;;;;15.47;100.00;97732.47;2062727;28;45871;-57
2023/11/02 00:58:11;;;;;;;;;1.25;1.25;;;;;15.44;100.00;97771.00;2062725;28;46782;-58
2023/11/02 00:59:17;;;;;;;;;7.50;6.25;;;;;15.45;100.00;97811.91;2062275;28;46804;-54
2023/11/02 01:00:49;;;;;;;;;2.00;2.00;;;;;15.45;100.00;97798.56;2062357;28;46320;-57
2023/11/02 01:01:49;;;;;;;;;43.00;37.20;;;;;15.43;100.00;97763.13;2062452;28;46879;-57
2023/11/02 01:02:51;;;;;;;;;35.00;31.00;;;;;15.43;100.00;97731.06;2062710;28;46801;-58
2023/11/02 01:04:04;;;;;;;;;2.00;2.00;;;;;15.42;100.00;97719.50;2062747;28;46296;-59
2023/11/02 01:05:19;;;;;;;;;4.25;4.25;;;;;15.41;100.00;97704.47;2095334;28;46925;-56
2023/11/02 01:06:25;;;;;;;;;2.00;2.00;;;;;15.41;100.00;97683.09;2088175;28;46772;-57
2023/11/02 01:07:28;;;;;;;;;3.00;1.25;;;;;15.40;100.00;97681.41;2062416;28;46263;-55
2023/11/02 01:08:30;;;;;;;;;3.25;3.25;;;;;15.37;100.00;97662.94;2062542;28;46101;-58
2023/11/02 01:09:42;;;;;;;;;17.00;15.75;;;;;15.37;100.00;97627.38;2062809;28;46627;-55
2023/11/02 01:10:43;;;;;;;;;13.20;12.20;;;;;15.30;100.00;97629.75;2062135;28;46212;-57
2023/11/02 01:11:44;;;;;;;;;2.00;2.00;;;;;15.25;100.00;97629.34;2061871;28;46566;-56
2023/11/02 01:12:44;;;;;;;;;1.00;1.00;;;;;15.24;100.00;97595.56;2062873;28;46299;-54
2023/11/02 01:13:44;;;;;;;;;1.67;1.67;;;;;15.24;100.00;97584.88;2062504;28;46259;-58
2023/11/02 01:14:49;;;;;;;;;2.00;2.00;;;;;15.22;100.00;97570.81;2062423;28;46046;-59
2023/11/02 01:15:53;;;;;;;;;7.00;5.25;;;;;15.19;100.00;97539.06;2062884;28;46263;-60
2023/11/02 01:16:53;;;;;;;;;2.75;2.00;;;;;15.14;100.00;97534.16;2062493;28;46422;-54
2023/11/02 01:17:53;;;;;;;;;0.67;0.67;;;;;15.12;100.00;97496.06;2062069;28;46816;-56
2023/11/02 01:18:56;;;;;;;;;6.33;6.33;;;;;15.08;100.00;97486.63;2062156;28;47075;-57
2023/11/02 01:20:33;;;;;;;;;2.75;2.75;;;;;15.09;100.00;97479.44;2062447;28;46396;-55
2023/11/02 01:21:33;;;;;;;;;21.40;19.40;;;;;15.08;100.00;97438.53;2061843;28;46425;-56
2023/11/02 01:22:50;;;;;;;;;6.00;5.00;;;;;15.07;100.00;97428.84;2061892;28;45985;-59
2023/11/02 01:24:06;;;;;;;;;3.75;1.00;;;;;15.07;100.00;97444.88;2054489;28;46632;-53
2023/11/02 01:25:13;;;;;;;;;2.75;2.25;;;;;15.06;100.00;97453.03;2062621;28;45924;-59
2023/11/02 01:26:59;;;;;;;;;1.50;1.00;;;;;15.05;100.00;97470.88;2059632;28;46400;-58
2023/11/02 01:28:02;;;;;;;;;10.60;9.00;;;;;15.05;100.00;97459.34;2048801;28;46509;-60
2023/11/02 01:29:03;;;;;;;;;1.75;1.75;;;;;15.03;100.00;97486.19;2053572;28;46596;-58
2023/11/02 01:30:32;;;;;;;;;0.33;0.33;;;;;15.01;100.00;97456.97;2053055;28;46598;-61
2023/11/02 01:31:35;;;;;;;;;23.40;21.40;;;;;15.01;100.00;97475.66;2029751;29;46862;-58
2023/11/02 01:32:35;;;;;;;;;3.00;2.00;;;;;15.01;100.00;97477.50;2029811;29;45634;-59
2023/11/02 01:33:39;;;;;;;;;3.00;0.67;;;;;15.04;100.00;97441.66;2029199;29;46520;-58
2023/11/02 01:34:39;;;;;;;;;2.00;2.00;;;;;15.05;100.00;97460.19;2029700;29;46946;-59
2023/11/02 01:35:43;;;;;;;;;5.67;5.00;;;;;15.08;100.00;97496.47;2029940;29;46314;-58
2023/11/02 01:36:44;;;;;;;;;2.75;2.75;;;;;15.11;100.00;97506.84;2029321;29;46531;-56
2023/11/02 01:37:47;;;;;;;;;5.00;5.00;;;;;15.13;100.00;97488.88;2029550;29;46707;-56
2023/11/02 01:38:53;;;;;;;;;4.00;3.75;;;;;15.15;100.00;97490.44;2029441;29;46884;-55
2023/11/02 01:40:31;;;;;;;;;2.00;2.00;;;;;15.18;100.00;97483.94;2022789;29;46101;-57
2023/11/02 01:42:06;;;;;;;;;4.50;2.50;;;;;15.20;100.00;97471.28;2021614;29;47052;-57
2023/11/02 01:43:08;;;;;;;;;3.00;2.00;;;;;15.21;100.00;97475.66;2014149;29;45867;-56
2023/11/02 01:44:21;;;;;;;;;3.25;2.25;;;;;15.22;100.00;97469.31;2014075;29;45886;-57
2023/11/02 01:45:24;;;;;;;;;1.00;1.00;;;;;15.21;100.00;97438.25;2013979;29;46424;-59
2023/11/02 01:46:43;;;;;;;;;9.25;8.25;;;;;15.22;100.00;97446.13;2013967;29;46394;-57
2023/11/02 01:47:50;;;;;;;;;2.00;1.00;;;;;15.27;100.00;97467.94;2014020;29;46436;-53
2023/11/02 01:49:20;;;;;;;;;3.00;3.00;;;;;15.29;100.00;97441.91;2013639;29;46487;-55
2023/11/02 01:50:29;;;;;;;;;5.75;3.25;;;;;15.31;100.00;97425.72;2034827;28;46381;-58
2023/11/02 01:51:37;;;;;;;;;5.00;4.00;;;;;15.31;100.00;97431.91;2038542;28;46594;-59
2023/11/02 01:53:01;;;;;;;;;3.00;3.00;;;;;15.34;100.00;97420.09;2038277;28;47216;-60
2023/11/02 01:54:01;;;;;;;;;2.00;1.25;;;;;15.36;100.00;97417.28;2038377;28;46327;-55
2023/11/02 01:55:21;;;;;;;;;3.67;2.67;;;;;15.37;100.00;97408.28;2038755;28;45946;-56
2023/11/02 01:56:32;;;;;;;;;0.75;0.75;;;;;15.40;100.00;97416.03;2038580;28;45644;-57
2023/11/02 01:58:18;;;;;;;;;0.25;0.25;;;;;15.41;100.00;97364.28;2038251;28;46388;-57
2023/11/02 01:59:30;;;;;;;;;2.00;1.00;;;;;15.44;100.00;97345.25;2014609;29;46556;-58
2023/11/02 02:00:47;;;;;;;;;0.25;0.25;;;;;15.45;100.00;97282.81;2015131;29;46619;-55
2023/11/02 02:02:01;;;;;;;;;2.00;0.00;;;;;15.47;100.00;97344.97;2014503;29;46045;-59
2023/11/02 02:03:21;;;;;;;;;1.00;1.00;;;;;15.48;100.00;97390.25;2014981;29;46889;-59
2023/11/02 02:04:44;;;;;;;;;2.25;1.50;;;;;15.50;100.00;97398.13;2015275;29;46824;-58
2023/11/02 02:06:00;;;;;;;;;2.00;2.00;;;;;15.52;100.00;97393.50;1983780;29;46340;-56
2023/11/02 02:07:05;;;;;;;;;1.00;1.00;;;;;15.52;100.00;97390.81;1976999;29;46859;-58
2023/11/02 02:08:20;;;;;;;;;1.75;1.50;;;;;15.51;100.00;97354.41;1976122;29;46683;-57
2023/11/02 02:09:43;;;;;;;;;1.00;1.00;;;;;15.52;100.00;97327.53;1996318;29;46443;-56
2023/11/02 02:11:08;;;;;;;;;1.50;1.00;;;;;15.53;100.00;97288.28;1995766;29;47010;-57
2023/11/02 02:12:34;;;;;;;;;0.50;0.50;;;;;15.54;100.00;97297.97;1992259;29;46084;-56
2023/11/02 02:13:45;;;;;;;;;0.00;0.00;;;;;15.55;100.00;97292.47;1991726;29;46633;-57
2023/11/02 02:14:51;;;;;;;;;0.50;0.50;;;;;15.59;100.00;97291.22;1991887;29;45146;-60
2023/11/02 02:16:03;;;;;;;;;0.00;0.00;;;;;15.58;100.00;97294.84;1991937;29;46932;-57
2023/11/02 02:17:19;;;;;;;;;0.75;0.75;;;;;15.63;100.00;97291.78;1991794;29;46497;-59
2023/11/02 02:18:30;;;;;;;;;0.75;0.75;;;;;15.65;100.00;97316.53;1999911;29;46597;-59
2023/11/02 02:19:56;;;;;;;;;1.00;1.00;;;;;15.69;100.00;97250.25;1997284;29;46785;-55
2023/11/02 02:21:05;;;;;;;;;1.00;0.50;;;;;15.69;100.00;97288.50;2011015;29;46698;-60
2023/11/02 02:22:10;;;;;;;;;0.00;0.00;;;;;15.67;100.00;97249.56;2024161;29;46129;-59
2023/11/02 02:23:25;;;;;;;;;1.50;1.00;;;;;15.68;100.00;97251.22;2023921;29;46350;-57
2023/11/02 02:24:37;;;;;;;;;0.00;0.00;;;;;15.70;100.00;97255.44;2023984;29;46655;-55
2023/11/02 02:26:08;;;;;;;;;0.00;0.00;;;;;15.71;100.00;97257.09;2024249;29;46023;-55
2023/11/02 02:27:14;;;;;;;;;0.00;0.00;;;;;15.73;100.00;97264.97;2024070;29;46713;-57
2023/11/02 02:28:25;;;;;;;;;0.25;0.25;;;;;15.72;100.00;97272.16;2002153;29;46377;-58
2023/11/02 02:29:44;;;;;;;;;3.00;0.00;;;;;15.71;100.00;97278.50;1992002;29;46735;-54
2023/11/02 02:31:20;;;;;;;;;0.25;0.25;;;;;15.69;100.00;97290.34;1991621;29;46515;-57
2023/11/02 02:32:20;;;;;;;;;0.00;0.00;;;;;15.67;100.00;97250.38;1984182;29;46487;-59
2023/11/02 02:33:50;;;;;;;;;1.67;1.00;;;;;15.70;100.00;97275.97;1984553;29;45692;-56
2023/11/02 02:34:58;;;;;;;;;0.00;0.00;;;;;15.71;100.00;97254.44;2007226;29;46424;-60
2023/11/02 02:36:11;;;;;;;;;0.00;0.00;;;;;15.72;100.00;97265.97;2012663;29;46269;-59
2023/11/02 02:37:15;;;;;;;;;1.50;1.00;;;;;15.74;100.00;97263.97;2014509;29;46411;-58
2023/11/02 02:38:28;;;;;;;;;2.00;0.75;;;;;15.77;100.00;97251.19;2015089;29;45608;-59
2023/11/02 02:39:30;;;;;;;;;0.00;0.00;;;;;15.79;100.00;97283.09;2014514;29;46754;-59
2023/11/02 02:40:39;;;;;;;;;0.25;0.25;;;;;15.79;100.00;97273.25;2014813;29;46574;-57
2023/11/02 02:41:43;;;;;;;;;0.25;0.25;;;;;15.81;100.00;97262.41;2014926;29;46063;-56
2023/11/02 02:42:47;;;;;;;;;0.25;0.25;;;;;15.82;100.00;97298.84;2015165;29;46398;-60
2023/11/02 02:43:59;;;;;;;;;1.00;0.50;;;;;15.79;100.00;97259.88;2032170;28;46700;-56
2023/11/02 02:45:06;;;;;;;;;0.75;0.75;;;;;15.82;100.00;97250.72;2040295;28;46471;-57
2023/11/02 02:46:07;;;;;;;;;1.00;1.00;;;;;15.83;100.00;97242.53;2038549;28;46769;-62
2023/11/02 02:47:09;;;;;;;;;0.75;0.75;;;;;15.84;100.00;97230.84;2041881;28;46072;-57
2023/11/02 02:48:10;;;;;;;;;1.25;1.25;;;;;15.76;100.00;97233.47;2046481;28;46332;-58
2023/11/02 02:49:11;;;;;;;;;0.00;0.00;;;;;15.84;100.00;97241.53;2046230;28;47101;-58
2023/11/02 02:50:15;;;;;;;;;0.00;0.00;;;;;15.85;100.00;97232.53;2037991;28;46314;-59
2023/11/02 02:51:16;;;;;;;;;0.75;0.75;;;;;15.86;100.00;97218.16;2038734;28;46538;-59
2023/11/02 02:52:24;;;;;;;;;0.00;0.00;;;;;15.86;100.00;97241.41;2046379;28;46500;-57
2023/11/02 02:53:27;;;;;;;;;0.25;0.25;;;;;15.88;100.00;97247.47;2042999;28;46574;-60
2023/11/02 02:54:29;;;;;;;;;0.00;0.00;;;;;15.93;100.00;97244.31;2038129;28;46462;-56
2023/11/02 02:55:31;;;;;;;;;0.75;0.75;;;;;15.94;100.00;97246.84;2045579;28;46867;-58
2023/11/02 02:56:35;;;;;;;;;0.75;0.00;;;;;15.96;100.00;97233.31;2044040;28;46421;-58
2023/11/02 02:57:43;;;;;;;;;0.00;0.00;;;;;15.97;100.00;97225.13;2045093;28;46464;-54
2023/11/02 02:58:53;;;;;;;;;0.00;0.00;;;;;15.99;100.00;97235.69;2039231;28;46683;-58
2023/11/02 02:59:56;;;;;;;;;0.75;0.75;;;;;15.98;100.00;97225.97;2037843;28;46805;-60
2023/11/02 03:00:56;;;;;;;;;0.00;0.00;;;;;16.00;100.00;97226.66;2038415;28;46648;-55
2023/11/02 03:01:58;;;;;;;;;0.00;0.00;;;;;16.01;100.00;97244.41;2038453;28;46156;-58
2023/11/02 03:03:01;;;;;;;;;0.00;0.00;;;;;16.01;100.00;97223.03;2038251;28;46572;-56
2023/11/02 03:04:02;;;;;;;;;0.00;0.00;;;;;16.00;100.00;97226.66;2037857;28;46989;-57
2023/11/02 03:05:09;;;;;;;;;0.00;0.00;;;;;16.02;100.00;97209.50;2043972;28;45732;-58
2023/11/02 03:06:10;;;;;;;;;0.00;0.00;;;;;16.04;100.00;97198.63;2044831;28;47023;-58
2023/11/02 03:07:15;;;;;;;;;0.00;0.00;;;;;16.06;100.00;97208.19;2038210;28;45806;-58
2023/11/02 03:08:16;;;;;;;;;0.00;0.00;;;;;16.04;100.00;97215.53;2043719;28;45656;-58
2023/11/02 03:09:38;;;;;;;;;0.00;0.00;;;;;16.06;100.00;97237.59;2045785;28;46419;-58
2023/11/02 03:10:41;;;;;;;;;0.75;0.75;;;;;16.09;100.00;97207.03;2054941;28;46649;-54
2023/11/02 03:11:45;;;;;;;;;0.00;0.00;;;;;16.09;100.00;97194.50;2062305;28;46842;-57
2023/11/02 03:12:49;;;;;;;;;0.00;0.00;;;;;16.10;100.00;97222.91;2063471;28;45490;-57
2023/11/02 03:13:53;;;;;;;;;1.75;0.50;;;;;16.11;100.00;97181.81;2063192;28;46978;-54
2023/11/02 03:14:56;;;;;;;;;0.00;0.00;;;;;16.12;100.00;97185.31;2098395;28;46492;-56
2023/11/02 03:16:02;;;;;;;;;0.00;0.00;;;;;16.15;100.00;97196.56;2095000;28;46654;-52
2023/11/02 03:17:13;;;;;;;;;0.25;0.25;;;;;16.14;100.00;97186.03;2062991;28;47433;-58
2023/11/02 03:18:13;;;;;;;;;0.00;0.00;;;;;16.13;100.00;97209.25;2063149;28;48145;-57
2023/11/02 03:19:34;;;;;;;;;0.33;0.00;;;;;16.14;100.00;97194.06;2063161;28;47205;-58
2023/11/02 03:20:34;;;;;;;;;0.00;0.00;;;;;16.14;100.00;97178.00;2062888;28;46364;-60
2023/11/02 03:21:34;;;;;;;;;0.00;0.00;;;;;16.16;100.00;97184.88;2063189;28;46915;-59
2023/11/02 03:22:35;;;;;;;;;0.00;0.00;;;;;16.18;100.00;97174.00;2062907;28;46492;-57
2023/11/02 03:24:02;;;;;;;;;0.00;0.00;;;;;16.22;100.00;97155.81;2056291;28;46579;-56
2023/11/02 03:25:29;;;;;;;;;0.00;0.00;;;;;16.27;100.00;97167.75;2054758;28;47082;-58
2023/11/02 03:26:57;;;;;;;;;0.00;0.00;;;;;16.30;100.00;97171.94;2055290;28;46780;-58
2023/11/02 03:28:14;;;;;;;;;1.00;0.25;;;;;16.30;100.00;97164.75;2055100;28;46554;-54
2023/11/02 03:29:25;;;;;;;;;0.00;0.00;;;;;16.32;100.00;97162.75;2054726;28;46605;-59
2023/11/02 03:30:51;;;;;;;;;0.00;0.00;;;;;16.33;100.00;97175.13;2055133;28;46402;-58
2023/11/02 03:32:00;;;;;;;;;0.00;0.00;;;;;16.36;100.00;97184.69;2055207;28;46461;-59
2023/11/02 03:33:26;;;;;;;;;0.00;0.00;;;;;16.36;100.00;97168.63;2062686;28;46855;-55
2023/11/02 03:34:58;;;;;;;;;0.00;0.00;;;;;16.38;100.00;97174.66;2063132;28;46456;-58
2023/11/02 03:36:03;;;;;;;;;0.75;0.00;;;;;16.38;100.00;97164.78;2079653;28;46786;-56
2023/11/02 03:37:22;;;;;;;;;0.25;0.00;;;;;16.42;100.00;97176.03;2079631;28;45153;-57
2023/11/02 03:38:36;;;;;;;;;0.00;0.00;;;;;16.44;100.00;97172.22;2079602;28;46923;-58
2023/11/02 03:40:10;;;;;;;;;0.00;0.00;;;;;16.45;100.00;97187.25;2079508;28;46450;-59
2023/11/02 03:41:46;;;;;;;;;0.00;0.00;;;;;16.47;100.00;97182.59;2079664;28;46089;-55
2023/11/02 03:43:05;;;;;;;;;0.25;0.25;;;;;16.49;100.00;97169.06;2063576;28;46403;-59
2023/11/02 03:44:17;;;;;;;;;0.00;0.00;;;;;16.48;100.00;97170.88;2063408;28;46430;-54
2023/11/02 03:45:38;;;;;;;;;0.00;0.00;;;;;16.52;100.00;97178.63;2063656;28;45785;-55
2023/11/02 03:47:07;;;;;;;;;0.00;0.00;;;;;16.55;100.00;97189.00;2055123;28;46742;-51
2023/11/02 03:48:25;;;;;;;;;0.00;0.00;;;;;16.58;100.00;97177.97;2058620;28;46884;-57
2023/11/02 03:49:44;;;;;;;;;0.75;0.00;;;;;16.56;100.00;97198.72;2063550;28;45981;-57
2023/11/02 03:51:00;;;;;;;;;0.00;0.00;;;;;16.60;100.00;97166.13;2055410;28;46442;-57
2023/11/02 03:52:06;;;;;;;;;0.00;0.00;;;;;16.61;100.00;97172.31;2052467;28;46128;-58
2023/11/02 03:53:16;;;;;;;;;0.00;0.00;;;;;16.62;100.00;97150.72;2055671;28;46528;-54
2023/11/02 03:54:44;;;;;;;;;0.75;0.75;;;;;16.63;100.00;97160.44;2063517;28;46073;-58
2023/11/02 03:56:05;;;;;;;;;0.00;0.00;;;;;16.65;100.00;97168.34;2063963;28;46108;-58
2023/11/02 03:57:28;;;;;;;;;0.00;0.00;;;;;16.64;100.00;97156.78;2060219;28;46920;-58
2023/11/02 03:58:46;;;;;;;;;0.00;0.00;;;;;16.66;100.00;97165.50;2053237;28;47214;-56
2023/11/02 03:59:46;;;;;;;;;2.75;2.00;;;;;16.68;100.00;97178.75;2057600;28;46671;-60
2023/11/02 04:01:00;;;;;;;;;0.00;0.00;;;;;16.70;100.00;97160.69;2063690;28;45201;-55
2023/11/02 04:02:07;;;;;;;;;0.75;0.50;;;;;16.69;100.00;97149.16;2063158;28;46588;-59
2023/11/02 04:03:10;;;;;;;;;0.00;0.00;;;;;16.70;100.00;97150.00;2063608;28;45658;-59
2023/11/02 04:04:16;;;;;;;;;1.00;0.00;;;;;16.71;100.00;97175.75;2063301;28;46385;-59
2023/11/02 04:05:22;;;;;;;;;0.25;0.00;;;;;16.70;100.00;97172.25;2054485;28;46532;-57
2023/11/02 04:06:37;;;;;;;;;0.00;0.00;;;;;16.71;100.00;97132.94;2048421;28;46521;-59
2023/11/02 04:07:59;;;;;;;;;0.00;0.00;;;;;16.71;100.00;97154.34;2063250;28;46375;-56
2023/11/02 04:09:04;;;;;;;;;1.00;1.00;;;;;16.71;100.00;97168.56;2062999;28;46439;-58
2023/11/02 04:10:11;;;;;;;;;1.25;0.00;;;;;16.71;100.00;97173.09;2055936;28;46315;-58
2023/11/02 04:11:31;;;;;;;;;2.00;0.00;;;;;16.69;100.00;97170.56;2055288;28;45984;-61
2023/11/02 04:12:40;;;;;;;;;0.50;0.25;;;;;16.68;100.00;97178.75;2056194;28;46830;-59
2023/11/02 04:13:56;;;;;;;;;0.00;0.00;;;;;16.67;100.00;97212.72;2070266;28;45678;-55
2023/11/02 04:14:59;;;;;;;;;0.25;0.25;;;;;16.65;100.00;97236.09;2079617;28;46982;-57
2023/11/02 04:16:00;;;;;;;;;0.00;0.00;;;;;16.63;100.00;97240.75;2079749;28;46443;-60
2023/11/02 04:17:00;;;;;;;;;0.00;0.00;;;;;16.62;100.00;97248.94;2079439;28;45049;-61
2023/11/02 04:18:01;;;;;;;;;1.67;0.67;;;;;16.60;100.00;97240.22;2079547;28;48080;-60
2023/11/02 04:19:02;;;;;;;;;0.00;0.00;;;;;16.59;100.00;97255.47;2079333;28;46946;-55
2023/11/02 04:20:04;;;;;;;;;0.75;0.75;;;;;16.56;100.00;97239.72;2079674;28;45862;-57
2023/11/02 04:21:05;;;;;;;;;0.75;0.75;;;;;16.53;100.00;97264.13;2060577;28;46912;-59
2023/11/02 04:22:07;;;;;;;;;0.50;0.00;;;;;16.49;100.00;97220.75;2062681;28;46785;-55
2023/11/02 04:23:08;;;;;;;;;1.00;1.00;;;;;16.45;100.00;97176.56;2063085;28;46593;-59
2023/11/02 04:24:08;;;;;;;;;0.00;0.00;;;;;16.44;100.00;97195.44;2062934;28;46283;-59
2023/11/02 04:25:08;;;;;;;;;0.00;0.00;;;;;16.42;100.00;97173.38;2062626;28;46287;-58
2023/11/02 04:26:09;;;;;;;;;0.00;0.00;;;;;16.40;100.00;97143.25;2062474;28;46682;-59
2023/11/02 04:27:09;;;;;;;;;1.33;0.00;;;;;16.37;100.00;97140.88;2062184;28;46297;-57
2023/11/02 04:28:10;;;;;;;;;0.00;0.00;;;;;16.35;100.00;97141.03;2062998;28;46542;-57
2023/11/02 04:29:10;;;;;;;;;0.00;0.00;;;;;16.33;100.00;97142.19;2062845;28;46827;-58
2023/11/02 04:30:11;;;;;;;;;0.00;0.00;;;;;16.28;100.00;97150.69;2063022;28;46947;-57
2023/11/02 04:31:12;;;;;;;;;0.00;0.00;;;;;16.25;100.00;97150.97;2062630;28;47055;-58
2023/11/02 04:32:12;;;;;;;;;0.00;0.00;;;;;16.23;100.00;97161.00;2062315;28;46462;-59
2023/11/02 04:33:13;;;;;;;;;0.00;0.00;;;;;16.23;100.00;97162.84;2062417;28;46350;-54
2023/11/02 04:34:14;;;;;;;;;0.25;0.00;;;;;16.23;100.00;97160.16;2062316;28;46276;-56
2023/11/02 04:35:14;;;;;;;;;0.33;0.33;;;;;16.24;100.00;97146.63;2062100;28;46854;-58
2023/11/02 04:36:14;;;;;;;;;1.00;0.00;;;;;16.23;100.00;97150.31;2062915;28;46406;-55
2023/11/02 04:37:16;;;;;;;;;1.00;1.00;;;;;16.22;100.00;97137.09;2062184;28;47013;-59
2023/11/02 04:38:16;;;;;;;;;3.00;0.50;;;;;16.20;100.00;97142.59;2063024;28;46381;-58
2023/11/02 04:39:16;;;;;;;;;0.00;0.00;;;;;16.17;100.00;97130.38;2062684;28;46651;-56
2023/11/02 04:40:17;;;;;;;;;1.33;0.67;;;;;16.15;100.00;97126.19;2062300;28;46418;-60
2023/11/02 04:41:18;;;;;;;;;0.67;0.67;;;;;16.13;100.00;97139.72;2062522;28;46202;-58
2023/11/02 04:42:18;;;;;;;;;0.75;0.75;;;;;16.13;100.00;97136.16;2062866;28;46378;-57
2023/11/02 04:43:19;;;;;;;;;1.00;1.00;;;;;16.11;100.00;97130.97;2061816;28;46368;-58
2023/11/02 04:44:19;;;;;;;;;0.00;0.00;;;;;16.13;100.00;97123.66;2062197;28;46588;-58
2023/11/02 04:45:19;;;;;;;;;0.67;0.00;;;;;16.11;100.00;97109.59;2062428;28;46383;-59
2023/11/02 04:46:20;;;;;;;;;0.00;0.00;;;;;16.13;100.00;97118.31;2054227;28;46661;-56
2023/11/02 04:47:20;;;;;;;;;0.33;0.33;;;;;16.12;100.00;97111.25;2081864;28;45536;-59
2023/11/02 04:48:20;;;;;;;;;0.33;0.00;;;;;16.13;100.00;97120.13;2080048;28;46213;-57
2023/11/02 04:49:21;;;;;;;;;1.33;0.33;;;;;16.13;100.00;97121.00;2063054;28;46106;-58
2023/11/02 04:50:22;;;;;;;;;0.33;0.33;;;;;16.14;100.00;97127.19;2057176;28;46573;-60
2023/11/02 04:51:22;;;;;;;;;0.00;0.00;;;;;16.13;100.00;97123.66;2054709;28;46803;-57
2023/11/02 04:52:24;;;;;;;;;1.00;0.33;;;;;16.13;100.00;97121.00;2054744;28;46606;-58
2023/11/02 04:53:24;;;;;;;;;3.75;2.00;;;;;16.13;100.00;97123.66;2057792;28;46564;-58
2023/11/02 04:54:34;;;;;;;;;2.33;0.00;;;;;16.13;100.00;97145.06;2062820;28;46563;-55
2023/11/02 04:55:35;;;;;;;;;1.50;1.00;;;;;16.15;100.00;97120.81;2062519;28;46395;-60
2023/11/02 04:56:35;;;;;;;;;3.75;0.75;;;;;16.14;100.00;97130.69;2062429;28;46784;-59
2023/11/02 04:57:35;;;;;;;;;1.67;1.67;;;;;16.14;100.00;97128.00;2062597;28;46889;-58
2023/11/02 04:58:36;;;;;;;;;1.33;0.67;;;;;16.14;100.00;97111.13;2057559;28;46689;-58
2023/11/02 04:59:43;;;;;;;;;0.00;0.00;;;;;16.14;100.00;97130.69;2054585;28;46459;-59
2023/11/02 05:00:43;;;;;;;;;1.00;0.50;;;;;16.12;100.00;97129.13;2054346;28;46600;-54
2023/11/02 05:01:44;;;;;;;;;0.00;0.00;;;;;16.13;100.00;97125.47;2058384;28;46389;-57
2023/11/02 05:02:44;;;;;;;;;1.67;0.67;;;;;16.12;100.00;97110.41;2062200;28;46778;-57
2023/11/02 05:03:44;;;;;;;;;0.00;0.00;;;;;16.11;100.00;97114.94;2062531;28;46475;-58
2023/11/02 05:04:45;;;;;;;;;1.00;1.00;;;;;16.11;100.00;97104.22;2062597;28;46325;-56
2023/11/02 05:05:45;;;;;;;;;0.33;0.00;;;;;16.12;100.00;97124.63;2062738;28;46345;-56
2023/11/02 05:06:45;;;;;;;;;0.00;0.00;;;;;16.13;100.00;97121.00;2062254;28;46277;-56
2023/11/02 05:07:45;;;;;;;;;1.00;1.00;;;;;16.13;100.00;97121.00;2062928;28;45702;-57
2023/11/02 05:08:46;;;;;;;;;0.33;0.33;;;;;16.14;100.00;97129.84;2063011;28;45534;-57
2023/11/02 05:09:46;;;;;;;;;0.67;0.67;;;;;16.14;100.00;97133.38;2062499;28;46555;-58
2023/11/02 05:10:46;;;;;;;;;1.67;1.67;;;;;16.14;100.00;97136.03;2062439;28;46250;-56
2023/11/02 05:11:47;;;;;;;;;1.33;1.33;;;;;16.16;100.00;97143.91;2062689;28;46161;-60
2023/11/02 05:12:47;;;;;;;;;2.00;1.00;;;;;16.16;100.00;97133.22;2062476;28;46355;-58
2023/11/02 05:13:47;;;;;;;;;1.33;1.33;;;;;16.14;100.00;97113.81;2063170;28;45878;-54